sensor_id;sensor_type;location;lat;lon;timestamp;pressure;altitude;pressure_sealevel;temperature;humidity
27014;BME280;14556;52.222;4.510;2022-11-15T00:00:52;100643.06;;;5.22;100.00
27014;BME280;14556;52.222;4.510;2022-11-15T00:03:22;100649.00;;;5.24;100.00
27014;BME280;14556;52.222;4.510;2022-11-15T00:05:49;100653.34;;;5.25;100.00
27014;BME280;14556;52.222;4.510;2022-11-15T00:08:15;100650.69;;;5.25;100.00
27014;BME280;14556;52.222;4.510;2022-11-15T00:10:42;100638.09;;;5.27;100.00
27014;BME280;14556;52.222;4.510;2022-11-15T00:13:11;100655.66;;;5.28;100.00
27014;BME280;14556;52.222;4.510;2022-11-15T00:15:40;100651.19;;;5.28;100.00
27014;BME280;14556;52.222;4.510;2022-11-15T00:18:12;100645.38;;;5.25;100.00
27014;BME280;14556;52.222;4.510;2022-11-15T00:20:39;100644.03;;;5.29;100.00
27014;BME280;14556;52.222;4.510;2022-11-15T00:23:06;100653.50;;;5.31;100.00
27014;BME280;14556;52.222;4.510;2022-11-15T00:25:33;100650.00;;;5.31;100.00
27014;BME280;14556;52.222;4.510;2022-11-15T00:27:59;100637.09;;;5.28;100.00
27014;BME280;14556;52.222;4.510;2022-11-15T00:30:27;100637.91;;;5.28;100.00
27014;BME280;14556;52.222;4.510;2022-11-15T00:32:54;100612.88;;;5.31;100.00
27014;BME280;14556;52.222;4.510;2022-11-15T00:35:21;100620.34;;;5.36;100.00
27014;BME280;14556;52.222;4.510;2022-11-15T00:37:47;100620.34;;;5.36;100.00
27014;BME280;14556;52.222;4.510;2022-11-15T00:40:14;100637.06;;;5.36;100.00
27014;BME280;14556;52.222;4.510;2022-11-15T00:42:41;100625.31;;;5.39;100.00
27014;BME280;14556;52.222;4.510;2022-11-15T00:45:09;100628.13;;;5.37;100.00
27014;BME280;14556;52.222;4.510;2022-11-15T00:47:35;100611.19;;;5.38;100.00
27014;BME280;14556;52.222;4.510;2022-11-15T00:50:02;100625.78;;;5.42;100.00
27014;BME280;14556;52.222;4.510;2022-11-15T00:52:29;100616.00;;;5.43;100.00
27014;BME280;14556;52.222;4.510;2022-11-15T00:54:55;100613.19;;;5.44;100.00
27014;BME280;14556;52.222;4.510;2022-11-15T00:57:22;100601.41;;;5.47;100.00
27014;BME280;14556;52.222;4.510;2022-11-15T00:59:48;100602.22;;;5.48;100.00
27014;BME280;14556;52.222;4.510;2022-11-15T01:02:15;100597.09;;;5.46;100.00
27014;BME280;14556;52.222;4.510;2022-11-15T01:04:41;100608.53;;;5.47;100.00
27014;BME280;14556;52.222;4.510;2022-11-15T01:07:07;100604.72;;;5.49;100.00
27014;BME280;14556;52.222;4.510;2022-11-15T01:09:34;100602.91;;;5.50;100.00
27014;BME280;14556;52.222;4.510;2022-11-15T01:12:00;100601.72;;;5.52;100.00
27014;BME280;14556;52.222;4.510;2022-11-15T01:14:27;100595.56;;;5.52;100.00
27014;BME280;14556;52.222;4.510;2022-11-15T01:16:53;100594.75;;;5.51;100.00
27014;BME280;14556;52.222;4.510;2022-11-15T01:19:20;100591.94;;;5.53;100.00
27014;BME280;14556;52.222;4.510;2022-11-15T01:21:49;100585.78;;;5.52;100.00
27014;BME280;14556;52.222;4.510;2022-11-15T01:24:16;100591.28;;;5.51;100.00
27014;BME280;14556;52.222;4.510;2022-11-15T01:26:42;100587.44;;;5.62;100.00
27014;BME280;14556;52.222;4.510;2022-11-15T01:29:09;100588.41;;;5.61;100.00
27014;BME280;14556;52.222;4.510;2022-11-15T01:31:35;100584.94;;;5.60;100.00
27014;BME280;14556;52.222;4.510;2022-11-15T01:34:02;100578.81;;;5.60;100.00
27014;BME280;14556;52.222;4.510;2022-11-15T01:36:29;100568.69;;;5.63;100.00
27014;BME280;14556;52.222;4.510;2022-11-15T01:38:59;100573.97;;;5.63;100.00
27014;BME280;14556;52.222;4.510;2022-11-15T01:41:28;100577.16;;;5.59;100.00
27014;BME280;14556;52.222;4.510;2022-11-15T01:46:58;100559.53;;;5.66;100.00
27014;BME280;14556;52.222;4.510;2022-11-15T01:49:29;100562.97;;;5.75;100.00
27014;BME280;14556;52.222;4.510;2022-11-15T01:51:57;100547.22;;;5.73;100.00
27014;BME280;14556;52.222;4.510;2022-11-15T01:54:24;100558.31;;;5.77;100.00
27014;BME280;14556;52.222;4.510;2022-11-15T01:56:53;100552.84;;;5.78;100.00
27014;BME280;14556;52.222;4.510;2022-11-15T01:59:23;100554.50;;;5.79;100.00
27014;BME280;14556;52.222;4.510;2022-11-15T02:01:49;100550.84;;;5.80;100.00
27014;BME280;14556;52.222;4.510;2022-11-15T02:04:20;100543.34;;;5.84;100.00
27014;BME280;14556;52.222;4.510;2022-11-15T02:06:49;100538.72;;;5.86;100.00
27014;BME280;14556;52.222;4.510;2022-11-15T02:09:16;100538.34;;;5.89;100.00
27014;BME280;14556;52.222;4.510;2022-11-15T02:11:43;100531.84;;;5.92;100.00
27014;BME280;14556;52.222;4.510;2022-11-15T02:14:11;100522.38;;;5.98;100.00
27014;BME280;14556;52.222;4.510;2022-11-15T02:17:21;100525.50;;;6.01;100.00
27014;BME280;14556;52.222;4.510;2022-11-15T02:20:12;100523.16;;;6.07;100.00
27014;BME280;14556;52.222;4.510;2022-11-15T02:23:02;100519.53;;;6.08;100.00
27014;BME280;14556;52.222;4.510;2022-11-15T02:37:16;100492.28;;;6.29;100.00
27014;BME280;14556;52.222;4.510;2022-11-15T02:39:51;100491.81;;;6.25;100.00
27014;BME280;14556;52.222;4.510;2022-11-15T02:42:32;100493.97;;;6.30;100.00
27014;BME280;14556;52.222;4.510;2022-11-15T02:45:30;100493.59;;;6.33;100.00
27014;BME280;14556;52.222;4.510;2022-11-15T02:48:00;100486.56;;;6.40;100.00
27014;BME280;14556;52.222;4.510;2022-11-15T02:50:30;100479.94;;;6.36;100.00
27014;BME280;14556;52.222;4.510;2022-11-15T02:52:57;100481.31;;;6.32;100.00
27014;BME280;14556;52.222;4.510;2022-11-15T02:55:38;100487.25;;;6.34;100.00
27014;BME280;14556;52.222;4.510;2022-11-15T02:58:23;100480.97;;;6.35;100.00
27014;BME280;14556;52.222;4.510;2022-11-15T03:01:02;100482.59;;;6.36;100.00
27014;BME280;14556;52.222;4.510;2022-11-15T03:09:20;100480.28;;;6.57;100.00
27014;BME280;14556;52.222;4.510;2022-11-15T03:11:57;100476.69;;;6.64;100.00
27014;BME280;14556;52.222;4.510;2022-11-15T03:14:29;100471.66;;;6.70;100.00
27014;BME280;14556;52.222;4.510;2022-11-15T03:19:44;100465.31;;;6.71;100.00
27014;BME280;14556;52.222;4.510;2022-11-15T03:22:15;100470.13;;;6.75;100.00
27014;BME280;14556;52.222;4.510;2022-11-15T03:24:43;100463.44;;;6.95;100.00
27014;BME280;14556;52.222;4.510;2022-11-15T03:27:15;100463.53;;;6.86;100.00
27014;BME280;14556;52.222;4.510;2022-11-15T03:29:48;100463.25;;;6.81;100.00
27014;BME280;14556;52.222;4.510;2022-11-15T03:32:23;100462.94;;;6.76;100.00
27014;BME280;14556;52.222;4.510;2022-11-15T03:35:01;100461.50;;;6.88;100.00
27014;BME280;14556;52.222;4.510;2022-11-15T03:37:44;100468.56;;;6.81;100.00
27014;BME280;14556;52.222;4.510;2022-11-15T03:40:12;100464.69;;;6.99;100.00
27014;BME280;14556;52.222;4.510;2022-11-15T03:42:46;100470.84;;;6.99;100.00
27014;BME280;14556;52.222;4.510;2022-11-15T03:45:31;100469.38;;;6.97;100.00
27014;BME280;14556;52.222;4.510;2022-11-15T03:48:05;100466.81;;;7.04;100.00
27014;BME280;14556;52.222;4.510;2022-11-15T03:50:35;100466.53;;;7.13;100.00
27014;BME280;14556;52.222;4.510;2022-11-15T03:53:02;100459.19;;;7.16;100.00
27014;BME280;14556;52.222;4.510;2022-11-15T03:55:31;100464.63;;;7.07;100.00
27014;BME280;14556;52.222;4.510;2022-11-15T03:58:00;100452.03;;;7.01;100.00
27014;BME280;14556;52.222;4.510;2022-11-15T04:00:28;100454.44;;;6.96;100.00
27014;BME280;14556;52.222;4.510;2022-11-15T04:02:54;100449.84;;;6.89;100.00
27014;BME280;14556;52.222;4.510;2022-11-15T04:05:21;100456.81;;;6.91;100.00
27014;BME280;14556;52.222;4.510;2022-11-15T04:07:47;100455.97;;;6.90;100.00
27014;BME280;14556;52.222;4.510;2022-11-15T04:10:14;100448.94;;;6.82;100.00
27014;BME280;14556;52.222;4.510;2022-11-15T04:12:43;100451.41;;;7.14;100.00
27014;BME280;14556;52.222;4.510;2022-11-15T04:15:14;100457.53;;;7.14;100.00
27014;BME280;14556;52.222;4.510;2022-11-15T04:17:44;100457.03;;;7.41;100.00
27014;BME280;14556;52.222;4.510;2022-11-15T04:20:20;100450.53;;;7.44;100.00
27014;BME280;14556;52.222;4.510;2022-11-15T04:23:24;100449.75;;;7.50;100.00
27014;BME280;14556;52.222;4.510;2022-11-15T04:26:14;100448.75;;;7.51;100.00
27014;BME280;14556;52.222;4.510;2022-11-15T04:28:42;100451.97;;;7.46;100.00
27014;BME280;14556;52.222;4.510;2022-11-15T04:31:27;100453.81;;;7.46;100.00
27014;BME280;14556;52.222;4.510;2022-11-15T04:33:55;100449.63;;;7.58;100.00
27014;BME280;14556;52.222;4.510;2022-11-15T04:36:21;100451.88;;;7.55;100.00
27014;BME280;14556;52.222;4.510;2022-11-15T04:39:07;100454.78;;;7.23;100.00
27014;BME280;14556;52.222;4.510;2022-11-15T04:41:33;100461.81;;;7.46;100.00
27014;BME280;14556;52.222;4.510;2022-11-15T04:44:00;100458.16;;;7.32;100.00
27014;BME280;14556;52.222;4.510;2022-11-15T04:46:26;100450.38;;;7.15;100.00
27014;BME280;14556;52.222;4.510;2022-11-15T04:48:53;100451.75;;;7.26;100.00
27014;BME280;14556;52.222;4.510;2022-11-15T04:51:24;100428.78;;;7.25;100.00
27014;BME280;14556;52.222;4.510;2022-11-15T04:53:50;100442.97;;;7.10;100.00
27014;BME280;14556;52.222;4.510;2022-11-15T04:56:18;100437.38;;;7.05;100.00
27014;BME280;14556;52.222;4.510;2022-11-15T04:58:44;100436.19;;;6.93;100.00
27014;BME280;14556;52.222;4.510;2022-11-15T05:01:13;100441.50;;;6.93;100.00
27014;BME280;14556;52.222;4.510;2022-11-15T05:03:44;100445.81;;;6.94;100.00
27014;BME280;14556;52.222;4.510;2022-11-15T05:06:29;100437.34;;;7.20;100.00
27014;BME280;14556;52.222;4.510;2022-11-15T05:08:56;100440.59;;;7.37;100.00
27014;BME280;14556;52.222;4.510;2022-11-15T05:11:23;100447.53;;;7.32;100.00
27014;BME280;14556;52.222;4.510;2022-11-15T05:13:50;100450.66;;;7.57;100.00
27014;BME280;14556;52.222;4.510;2022-11-15T05:16:16;100452.03;;;7.53;100.00
27014;BME280;14556;52.222;4.510;2022-11-15T05:18:43;100454.25;;;7.49;100.00
27014;BME280;14556;52.222;4.510;2022-11-15T05:21:12;100462.22;;;7.65;100.00
27014;BME280;14556;52.222;4.510;2022-11-15T05:23:39;100461.25;;;7.72;100.00
27014;BME280;14556;52.222;4.510;2022-11-15T05:26:07;100470.00;;;7.88;100.00
27014;BME280;14556;52.222;4.510;2022-11-15T05:28:35;100464.63;;;8.03;100.00
27014;BME280;14556;52.222;4.510;2022-11-15T05:31:08;100470.00;;;7.88;100.00
27014;BME280;14556;52.222;4.510;2022-11-15T05:33:38;100464.16;;;7.78;100.00
27014;BME280;14556;52.222;4.510;2022-11-15T05:36:29;100465.50;;;7.67;100.00
27014;BME280;14556;52.222;4.510;2022-11-15T05:38:57;100474.31;;;7.67;100.00
27014;BME280;14556;52.222;4.510;2022-11-15T05:41:28;100475.13;;;7.46;100.00
27014;BME280;14556;52.222;4.510;2022-11-15T05:43:56;100477.78;;;7.68;100.00
27014;BME280;14556;52.222;4.510;2022-11-15T05:46:23;100472.63;;;8.03;100.00
27014;BME280;14556;52.222;4.510;2022-11-15T05:48:51;100479.19;;;7.64;100.00
27014;BME280;14556;52.222;4.510;2022-11-15T05:51:20;100481.28;;;7.90;100.00
27014;BME280;14556;52.222;4.510;2022-11-15T05:53:49;100474.09;;;7.84;100.00
27014;BME280;14556;52.222;4.510;2022-11-15T05:56:17;100477.88;;;7.74;100.00
27014;BME280;14556;52.222;4.510;2022-11-15T05:58:43;100483.69;;;7.85;100.00
27014;BME280;14556;52.222;4.510;2022-11-15T06:01:10;100475.59;;;7.71;100.00
27014;BME280;14556;52.222;4.510;2022-11-15T06:03:36;100476.81;;;7.91;100.00
27014;BME280;14556;52.222;4.510;2022-11-15T06:06:03;100477.59;;;7.69;100.00
27014;BME280;14556;52.222;4.510;2022-11-15T06:08:30;100476.78;;;7.69;100.00
27014;BME280;14556;52.222;4.510;2022-11-15T06:10:56;100482.75;;;7.71;100.00
27014;BME280;14556;52.222;4.510;2022-11-15T06:13:23;100483.38;;;7.73;100.00
27014;BME280;14556;52.222;4.510;2022-11-15T06:15:49;100484.59;;;7.70;100.00
27014;BME280;14556;52.222;4.510;2022-11-15T06:18:16;100490.09;;;7.69;100.00
27014;BME280;14556;52.222;4.510;2022-11-15T06:20:42;100488.25;;;7.69;100.00
27014;BME280;14556;52.222;4.510;2022-11-15T06:23:08;100496.06;;;7.71;100.00
27014;BME280;14556;52.222;4.510;2022-11-15T06:25:35;100490.84;;;7.62;100.00
27014;BME280;14556;52.222;4.510;2022-11-15T06:28:01;100494.16;;;7.65;100.00
27014;BME280;14556;52.222;4.510;2022-11-15T06:30:28;100492.59;;;7.70;100.00
27014;BME280;14556;52.222;4.510;2022-11-15T06:32:59;100493.97;;;7.66;100.00
27014;BME280;14556;52.222;4.510;2022-11-15T06:35:26;100494.06;;;7.95;100.00
27014;BME280;14556;52.222;4.510;2022-11-15T06:37:52;100485.31;;;8.01;100.00
27014;BME280;14556;52.222;4.510;2022-11-15T06:40:19;100489.78;;;8.01;100.00
27014;BME280;14556;52.222;4.510;2022-11-15T06:42:45;100479.53;;;8.19;100.00
27014;BME280;14556;52.222;4.510;2022-11-15T06:45:12;100490.63;;;8.01;100.00
27014;BME280;14556;52.222;4.510;2022-11-15T06:47:45;100495.91;;;7.94;100.00
27014;BME280;14556;52.222;4.510;2022-11-15T06:50:12;100506.34;;;7.96;100.00
27014;BME280;14556;52.222;4.510;2022-11-15T06:52:39;100505.84;;;7.85;100.00
27014;BME280;14556;52.222;4.510;2022-11-15T06:55:06;100518.50;;;7.83;100.00
27014;BME280;14556;52.222;4.510;2022-11-15T06:57:33;100516.13;;;7.89;100.00
27014;BME280;14556;52.222;4.510;2022-11-15T06:59:59;100516.31;;;7.87;100.00
27014;BME280;14556;52.222;4.510;2022-11-15T07:02:26;100514.47;;;7.88;100.00
27014;BME280;14556;52.222;4.510;2022-11-15T07:04:52;100508.94;;;8.11;100.00
27014;BME280;14556;52.222;4.510;2022-11-15T07:07:18;100498.16;;;7.97;100.00
27014;BME280;14556;52.222;4.510;2022-11-15T07:09:45;100506.41;;;8.03;100.00
27014;BME280;14556;52.222;4.510;2022-11-15T07:12:11;100511.56;;;8.04;100.00
27014;BME280;14556;52.222;4.510;2022-11-15T07:14:38;100514.03;;;8.06;100.00
27014;BME280;14556;52.222;4.510;2022-11-15T07:17:04;100511.06;;;8.16;100.00
27014;BME280;14556;52.222;4.510;2022-11-15T07:19:31;100510.44;;;8.14;100.00
27014;BME280;14556;52.222;4.510;2022-11-15T07:21:58;100514.19;;;8.19;100.00
27014;BME280;14556;52.222;4.510;2022-11-15T07:24:24;100506.94;;;8.13;100.00
27014;BME280;14556;52.222;4.510;2022-11-15T07:26:51;100509.00;;;8.18;100.00
27014;BME280;14556;52.222;4.510;2022-11-15T07:29:17;100497.34;;;8.19;100.00
27014;BME280;14556;52.222;4.510;2022-11-15T07:31:44;100499.88;;;8.27;100.00
27014;BME280;14556;52.222;4.510;2022-11-15T07:34:10;100505.00;;;8.29;100.00
27014;BME280;14556;52.222;4.510;2022-11-15T07:36:37;100495.38;;;8.28;100.00
27014;BME280;14556;52.222;4.510;2022-11-15T07:39:03;100489.84;;;8.29;100.00
27014;BME280;14556;52.222;4.510;2022-11-15T07:41:30;100493.41;;;8.15;100.00
27014;BME280;14556;52.222;4.510;2022-11-15T07:43:56;100499.97;;;8.12;100.00
27014;BME280;14556;52.222;4.510;2022-11-15T07:46:27;100491.59;;;8.15;100.00
27014;BME280;14556;52.222;4.510;2022-11-15T07:48:54;100499.28;;;8.32;100.00
27014;BME280;14556;52.222;4.510;2022-11-15T07:51:20;100485.56;;;8.28;100.00
27014;BME280;14556;52.222;4.510;2022-11-15T07:53:47;100486.69;;;8.19;100.00
27014;BME280;14556;52.222;4.510;2022-11-15T07:56:13;100470.34;;;8.00;100.00
27014;BME280;14556;52.222;4.510;2022-11-15T07:58:40;100486.44;;;8.14;100.00
27014;BME280;14556;52.222;4.510;2022-11-15T08:01:08;100478.91;;;8.17;100.00
27014;BME280;14556;52.222;4.510;2022-11-15T08:03:36;100473.38;;;8.19;100.00
27014;BME280;14556;52.222;4.510;2022-11-15T08:06:03;100471.53;;;8.19;100.00
27014;BME280;14556;52.222;4.510;2022-11-15T08:08:30;100479.84;;;8.31;100.00
27014;BME280;14556;52.222;4.510;2022-11-15T08:11:00;100474.69;;;8.30;100.00
27014;BME280;14556;52.222;4.510;2022-11-15T08:13:27;100465.09;;;8.35;100.00
27014;BME280;14556;52.222;4.510;2022-11-15T08:16:01;100464.72;;;8.39;100.00
27014;BME280;14556;52.222;4.510;2022-11-15T08:18:28;100466.06;;;8.28;100.00
27014;BME280;14556;52.222;4.510;2022-11-15T08:20:59;100463.44;;;8.34;100.00
27014;BME280;14556;52.222;4.510;2022-11-15T08:23:26;100463.09;;;8.44;100.00
27014;BME280;14556;52.222;4.510;2022-11-15T08:25:52;100459.25;;;8.47;100.00
27014;BME280;14556;52.222;4.510;2022-11-15T08:28:19;100441.22;;;8.49;100.00
27014;BME280;14556;52.222;4.510;2022-11-15T08:30:45;100449.47;;;8.54;100.00
27014;BME280;14556;52.222;4.510;2022-11-15T08:33:13;100440.69;;;8.61;100.00
27014;BME280;14556;52.222;4.510;2022-11-15T08:35:40;100444.44;;;8.66;100.00
27014;BME280;14556;52.222;4.510;2022-11-15T08:38:07;100439.72;;;8.68;100.00
27014;BME280;14556;52.222;4.510;2022-11-15T08:40:34;100421.44;;;8.65;100.00
27014;BME280;14556;52.222;4.510;2022-11-15T08:43:01;100437.31;;;8.74;100.00
27014;BME280;14556;52.222;4.510;2022-11-15T08:45:29;100437.34;;;8.80;100.00
27014;BME280;14556;52.222;4.510;2022-11-15T08:47:56;100434.28;;;8.83;100.00
27014;BME280;14556;52.222;4.510;2022-11-15T08:50:23;100432.00;;;8.80;100.00
27014;BME280;14556;52.222;4.510;2022-11-15T08:52:49;100431.59;;;8.83;100.00
27014;BME280;14556;52.222;4.510;2022-11-15T08:55:16;100427.91;;;8.85;100.00
27014;BME280;14556;52.222;4.510;2022-11-15T08:57:43;100427.13;;;8.91;100.00
27014;BME280;14556;52.222;4.510;2022-11-15T09:00:10;100432.06;;;8.94;100.00
27014;BME280;14556;52.222;4.510;2022-11-15T09:02:39;100430.81;;;8.97;100.00
27014;BME280;14556;52.222;4.510;2022-11-15T09:05:06;100429.22;;;9.02;100.00
27014;BME280;14556;52.222;4.510;2022-11-15T09:07:33;100435.19;;;9.04;100.00
27014;BME280;14556;52.222;4.510;2022-11-15T09:10:00;100424.09;;;9.07;100.00
27014;BME280;14556;52.222;4.510;2022-11-15T09:12:27;100431.34;;;9.21;100.00
27014;BME280;14556;52.222;4.510;2022-11-15T09:14:53;100442.25;;;9.26;100.00
27014;BME280;14556;52.222;4.510;2022-11-15T09:17:20;100427.63;;;9.15;100.00
27014;BME280;14556;52.222;4.510;2022-11-15T09:19:50;100432.59;;;9.25;100.00
27014;BME280;14556;52.222;4.510;2022-11-15T09:22:17;100432.81;;;9.30;100.00
27014;BME280;14556;52.222;4.510;2022-11-15T09:24:44;100421.56;;;9.35;100.00
27014;BME280;14556;52.222;4.510;2022-11-15T09:27:10;100427.91;;;9.40;100.00
27014;BME280;14556;52.222;4.510;2022-11-15T09:29:37;100428.53;;;9.42;100.00
27014;BME280;14556;52.222;4.510;2022-11-15T09:32:03;100431.06;;;9.51;100.00
27014;BME280;14556;52.222;4.510;2022-11-15T09:34:30;100424.25;;;9.55;100.00
27014;BME280;14556;52.222;4.510;2022-11-15T09:36:56;100425.72;;;9.58;100.00
27014;BME280;14556;52.222;4.510;2022-11-15T09:39:23;100430.22;;;9.57;100.00
27014;BME280;14556;52.222;4.510;2022-11-15T09:44:56;100421.84;;;10.01;100.00
27014;BME280;14556;52.222;4.510;2022-11-15T09:50:32;100416.25;;;10.70;100.00
27014;BME280;14556;52.222;4.510;2022-11-15T09:53:00;100405.09;;;10.87;100.00
27014;BME280;14556;52.222;4.510;2022-11-15T09:55:34;100414.53;;;10.90;100.00
27014;BME280;14556;52.222;4.510;2022-11-15T09:58:33;100405.47;;;10.97;100.00
27014;BME280;14556;52.222;4.510;2022-11-15T10:01:06;100401.78;;;10.92;100.00
27014;BME280;14556;52.222;4.510;2022-11-15T10:03:38;100379.13;;;10.87;100.00
27014;BME280;14556;52.222;4.510;2022-11-15T10:06:10;100389.00;;;10.94;100.00
27014;BME280;14556;52.222;4.510;2022-11-15T10:08:51;100376.28;;;11.28;100.00
27014;BME280;14556;52.222;4.510;2022-11-15T10:11:22;100367.16;;;11.68;100.00
27014;BME280;14556;52.222;4.510;2022-11-15T10:14:11;100352.28;;;11.72;100.00
27014;BME280;14556;52.222;4.510;2022-11-15T10:24:50;100342.09;;;12.51;100.00
27014;BME280;14556;52.222;4.510;2022-11-15T10:27:18;100339.75;;;12.74;100.00
27014;BME280;14556;52.222;4.510;2022-11-15T10:29:47;100343.50;;;13.03;100.00
27014;BME280;14556;52.222;4.510;2022-11-15T10:32:17;100332.88;;;12.97;100.00
27014;BME280;14556;52.222;4.510;2022-11-15T10:34:44;100329.75;;;13.12;100.00
27014;BME280;14556;52.222;4.510;2022-11-15T10:37:11;100316.53;;;12.98;100.00
27014;BME280;14556;52.222;4.510;2022-11-15T10:39:38;100324.97;;;13.14;100.00
27014;BME280;14556;52.222;4.510;2022-11-15T10:42:17;100317.25;;;12.75;100.00
27014;BME280;14556;52.222;4.510;2022-11-15T10:44:45;100305.94;;;12.73;100.00
27014;BME280;14556;52.222;4.510;2022-11-15T10:47:31;100298.22;;;13.07;100.00
27014;BME280;14556;52.222;4.510;2022-11-15T10:50:11;100296.13;;;13.09;100.00
27014;BME280;14556;52.222;4.510;2022-11-15T10:52:52;100286.25;;;12.91;100.00
27014;BME280;14556;52.222;4.510;2022-11-15T10:55:24;100297.38;;;12.94;100.00
27014;BME280;14556;52.222;4.510;2022-11-15T10:57:54;100298.03;;;13.21;100.00
27014;BME280;14556;52.222;4.510;2022-11-15T11:03:01;100290.56;;;12.80;100.00
27014;BME280;14556;52.222;4.510;2022-11-15T11:05:31;100293.03;;;12.63;100.00
27014;BME280;14556;52.222;4.510;2022-11-15T11:10:56;100311.06;;;11.73;100.00
27014;BME280;14556;52.222;4.510;2022-11-15T11:13:34;100306.47;;;11.55;100.00
27014;BME280;14556;52.222;4.510;2022-11-15T11:18:59;100308.56;;;11.21;100.00
27014;BME280;14556;52.222;4.510;2022-11-15T11:21:46;100295.16;;;11.21;100.00
27014;BME280;14556;52.222;4.510;2022-11-15T11:24:23;100302.22;;;11.15;100.00
27014;BME280;14556;52.222;4.510;2022-11-15T11:27:05;100277.69;;;11.18;100.00
27014;BME280;14556;52.222;4.510;2022-11-15T11:35:19;100241.84;;;11.70;100.00
27014;BME280;14556;52.222;4.510;2022-11-15T11:37:51;100239.00;;;11.65;100.00
27014;BME280;14556;52.222;4.510;2022-11-15T11:40:32;100218.47;;;11.59;100.00
27014;BME280;14556;52.222;4.510;2022-11-15T11:43:23;100230.38;;;11.63;100.00
27014;BME280;14556;52.222;4.510;2022-11-15T11:46:14;100235.41;;;11.53;100.00
27014;BME280;14556;52.222;4.510;2022-11-15T11:48:47;100229.41;;;11.57;100.00
27014;BME280;14556;52.222;4.510;2022-11-15T11:54:03;100234.41;;;11.72;100.00
27014;BME280;14556;52.222;4.510;2022-11-15T11:56:34;100227.19;;;11.73;100.00
27014;BME280;14556;52.222;4.510;2022-11-15T11:59:19;100214.44;;;11.68;100.00
27014;BME280;14556;52.222;4.510;2022-11-15T12:01:47;100216.00;;;11.57;100.00
27014;BME280;14556;52.222;4.510;2022-11-15T12:06:50;100186.78;;;11.30;100.00
27014;BME280;14556;52.222;4.510;2022-11-15T12:15:44;100188.00;;;11.34;100.00
27014;BME280;14556;52.222;4.510;2022-11-15T12:18:15;100182.47;;;11.29;100.00
27014;BME280;14556;52.222;4.510;2022-11-15T12:20:54;100175.09;;;11.24;100.00
27014;BME280;14556;52.222;4.510;2022-11-15T12:23:28;100166.91;;;11.19;100.00
27014;BME280;14556;52.222;4.510;2022-11-15T12:26:18;100173.25;;;11.25;100.00
27014;BME280;14556;52.222;4.510;2022-11-15T12:29:00;100169.16;;;11.22;100.00
27014;BME280;14556;52.222;4.510;2022-11-15T12:34:03;100153.63;;;11.06;100.00
27014;BME280;14556;52.222;4.510;2022-11-15T12:36:38;100153.81;;;11.11;100.00
27014;BME280;14556;52.222;4.510;2022-11-15T12:39:09;100150.06;;;11.12;100.00
27014;BME280;14556;52.222;4.510;2022-11-15T12:41:44;100136.53;;;11.07;100.00
27014;BME280;14556;52.222;4.510;2022-11-15T12:59:57;100101.97;;;11.05;100.00
27014;BME280;14556;52.222;4.510;2022-11-15T13:02:31;100113.13;;;11.21;100.00
27014;BME280;14556;52.222;4.510;2022-11-15T13:12:58;100095.22;;;11.21;100.00
27014;BME280;14556;52.222;4.510;2022-11-15T13:18:38;100082.66;;;11.22;100.00
27014;BME280;14556;52.222;4.510;2022-11-15T13:21:19;100061.97;;;11.10;100.00
27014;BME280;14556;52.222;4.510;2022-11-15T13:24:12;100081.25;;;11.19;100.00
27014;BME280;14556;52.222;4.510;2022-11-15T13:26:39;100077.22;;;11.10;100.00
27014;BME280;14556;52.222;4.510;2022-11-15T13:29:15;100079.91;;;11.10;100.00
27014;BME280;14556;52.222;4.510;2022-11-15T13:31:43;100064.06;;;11.08;100.00
27014;BME280;14556;52.222;4.510;2022-11-15T13:34:31;100061.41;;;11.08;100.00
27014;BME280;14556;52.222;4.510;2022-11-15T13:39:47;100055.88;;;11.03;100.00
27014;BME280;14556;52.222;4.510;2022-11-15T13:42:19;100049.56;;;10.97;100.00
27014;BME280;14556;52.222;4.510;2022-11-15T13:47:26;100040.59;;;10.85;100.00
27014;BME280;14556;52.222;4.510;2022-11-15T13:49:59;100031.81;;;10.78;100.00
27014;BME280;14556;52.222;4.510;2022-11-15T13:52:31;100033.47;;;10.79;100.00
27014;BME280;14556;52.222;4.510;2022-11-15T13:55:02;100025.88;;;10.75;100.00
27014;BME280;14556;52.222;4.510;2022-11-15T13:57:42;100014.59;;;10.73;100.00
27014;BME280;14556;52.222;4.510;2022-11-15T14:00:34;100008.88;;;10.70;100.00
27014;BME280;14556;52.222;4.510;2022-11-15T14:08:29;99995.09;;;10.66;100.00
27014;BME280;14556;52.222;4.510;2022-11-15T14:13:35;99979.84;;;10.67;100.00
27014;BME280;14556;52.222;4.510;2022-11-15T14:16:15;99976.16;;;10.68;100.00
27014;BME280;14556;52.222;4.510;2022-11-15T14:18:44;99982.13;;;10.70;100.00
27014;BME280;14556;52.222;4.510;2022-11-15T14:21:11;99965.31;;;10.62;100.00
27014;BME280;14556;52.222;4.510;2022-11-15T14:23:37;99962.63;;;10.62;100.00
27014;BME280;14556;52.222;4.510;2022-11-15T14:26:04;99961.81;;;10.62;100.00
27014;BME280;14556;52.222;4.510;2022-11-15T14:28:37;99948.56;;;10.48;100.00
27014;BME280;14556;52.222;4.510;2022-11-15T14:31:11;99955.69;;;10.55;100.00
27014;BME280;14556;52.222;4.510;2022-11-15T14:33:39;99950.19;;;10.49;100.00
27014;BME280;14556;52.222;4.510;2022-11-15T14:36:11;99938.28;;;10.45;100.00
27014;BME280;14556;52.222;4.510;2022-11-15T14:38:39;99953.91;;;10.48;100.00
27014;BME280;14556;52.222;4.510;2022-11-15T14:41:11;99938.91;;;10.47;100.00
27014;BME280;14556;52.222;4.510;2022-11-15T14:43:43;99935.81;;;10.50;100.00
27014;BME280;14556;52.222;4.510;2022-11-15T14:46:10;99918.34;;;10.48;100.00
27014;BME280;14556;52.222;4.510;2022-11-15T14:48:36;99930.00;;;10.54;100.00
27014;BME280;14556;52.222;4.510;2022-11-15T14:51:03;99914.41;;;10.50;100.00